Time;durP1;ratioP1;P1;durP2;ratioP2;P2;SDS_P1;SDS_P2;PMS_P1;PMS_P2;Temp;Humidity;BMP_temperature;BMP_pressure;BME280_temperature;BME280_humidity;BME280_pressure;Samples;Min_cycle;Max_cycle;Signal;HPM_P1;HPM_P2
2021/06/01 00:00:11;;;;;;;7.03;4.88;;;15.00;60.10;;;;;;5074133;28;20515;-73
2021/06/01 00:02:37;;;;;;;6.63;4.68;;;15.00;59.80;;;;;;5073910;28;20115;-73
2021/06/01 00:05:05;;;;;;;6.88;5.00;;;15.00;59.70;;;;;;5073775;28;20124;-73
2021/06/01 00:07:31;;;;;;;9.23;4.90;;;14.90;59.70;;;;;;5073540;28;20028;-73
2021/06/01 00:09:57;;;;;;;9.18;5.25;;;14.80;59.40;;;;;;5073412;28;20025;-73
2021/06/01 00:12:24;;;;;;;7.47;4.72;;;14.70;59.60;;;;;;5073907;28;20048;-73
2021/06/01 00:14:50;;;;;;;7.35;4.70;;;14.70;59.70;;;;;;5055765;28;20496;-73
2021/06/01 00:17:16;;;;;;;8.68;4.57;;;14.60;59.80;;;;;;5073360;28;20063;-73
2021/06/01 00:19:42;;;;;;;8.82;4.47;;;14.60;59.90;;;;;;5073503;28;20092;-74
2021/06/01 00:22:08;;;;;;;7.43;4.38;;;14.60;59.90;;;;;;5073441;28;20036;-75
2021/06/01 00:24:34;;;;;;;7.35;4.00;;;14.60;59.90;;;;;;5072880;28;20040;-74
2021/06/01 00:27:02;;;;;;;7.53;4.57;;;14.60;59.70;;;;;;5072920;28;20119;-74
2021/06/01 00:29:28;;;;;;;7.45;4.05;;;14.70;59.50;;;;;;5073333;28;20036;-73
2021/06/01 00:31:54;;;;;;;7.65;4.47;;;14.60;59.40;;;;;;5055540;28;20111;-73
2021/06/01 00:34:20;;;;;;;6.05;4.45;;;14.70;59.30;;;;;;5073407;28;20476;-73
2021/06/01 00:36:46;;;;;;;6.70;5.57;;;14.60;59.30;;;;;;5072912;28;20036;-73
2021/06/01 00:39:12;;;;;;;10.35;6.25;;;14.60;59.10;;;;;;5072857;28;20094;-74
2021/06/01 00:41:38;;;;;;;11.90;7.80;;;14.60;59.00;;;;;;5073164;28;20041;-74
2021/06/01 00:44:04;;;;;;;9.13;8.10;;;14.60;58.90;;;;;;5072970;28;20446;-74
2021/06/01 00:46:30;;;;;;;11.13;9.23;;;14.50;59.00;;;;;;5073163;28;20082;-74
2021/06/01 00:48:56;;;;;;;9.52;8.55;;;14.50;59.00;;;;;;5073305;28;20032;-74
2021/06/01 00:51:22;;;;;;;9.20;8.13;;;14.50;58.90;;;;;;5073205;28;20106;-74
2021/06/01 00:53:48;;;;;;;10.45;7.30;;;14.50;58.90;;;;;;5072731;28;20041;-74
2021/06/01 00:56:14;;;;;;;10.20;7.18;;;14.50;58.70;;;;;;5055095;28;20051;-74
2021/06/01 00:58:41;;;;;;;8.38;6.82;;;14.50;58.50;;;;;;5072955;28;20049;-75
2021/06/01 01:03:38;;;;;;;6.32;5.50;;;14.50;58.50;;;;;;5072886;28;20151;-74
2021/06/01 01:06:30;;;;;;;7.78;5.60;;;14.50;58.60;;;;;;5073053;28;20062;-74
2021/06/01 01:08:58;;;;;;;8.02;5.05;;;14.50;58.60;;;;;;5072834;28;20044;-74
2021/06/01 01:11:42;;;;;;;11.48;5.05;;;14.40;59.20;;;;;;5072674;28;20043;-74
2021/06/01 01:14:14;;;;;;;6.97;5.18;;;14.40;59.00;;;;;;5054795;28;20051;-74
2021/06/01 01:16:57;;;;;;;6.50;5.10;;;14.20;59.30;;;;;;5073130;28;20053;-73
2021/06/01 01:19:34;;;;;;;8.68;5.15;;;14.20;59.60;;;;;;5038188;28;20043;-75
2021/06/01 01:22:01;;;;;;;7.20;5.10;;;14.20;59.60;;;;;;5072905;28;20507;-73
2021/06/01 01:24:44;;;;;;;10.70;4.85;;;14.20;59.60;;;;;;5054605;28;20029;-73
2021/06/01 01:27:31;;;;;;;6.80;4.50;;;14.30;59.40;;;;;;5072874;28;20040;-74
2021/06/01 01:30:00;;;;;;;6.45;4.03;;;14.40;59.00;;;;;;5072305;28;20044;-74
2021/06/01 01:32:29;;;;;;;8.38;4.68;;;14.50;58.70;;;;;;5072381;28;20040;-74
2021/06/01 01:34:58;;;;;;;6.05;4.38;;;14.60;58.70;;;;;;5072581;28;20033;-74
2021/06/01 01:37:29;;;;;;;5.07;3.83;;;14.70;58.40;;;;;;5073443;28;20045;-74
2021/06/01 01:40:00;;;;;;;6.65;3.90;;;14.70;58.20;;;;;;5076623;28;20515;-74
2021/06/01 01:42:29;;;;;;;8.10;3.45;;;14.70;58.20;;;;;;5077147;28;20039;-74
2021/06/01 01:44:55;;;;;;;4.95;3.90;;;14.70;58.40;;;;;;5076780;28;20484;-74
2021/06/01 01:50:03;;;;;;;6.65;4.10;;;14.60;58.40;;;;;;5076349;28;20115;-74
2021/06/01 01:52:33;;;;;;;5.20;3.80;;;14.40;59.00;;;;;;5076341;28;20127;-75
2021/06/01 01:54:58;;;;;;;5.55;3.80;;;14.40;59.30;;;;;;5058548;28;20047;-74
2021/06/01 01:57:25;;;;;;;8.43;3.70;;;14.40;59.60;;;;;;5076342;28;20408;-74
2021/06/01 01:59:53;;;;;;;5.38;4.10;;;14.40;59.50;;;;;;5076151;28;20040;-74
2021/06/01 02:02:19;;;;;;;5.88;4.15;;;14.50;59.60;;;;;;5076179;28;20115;-73
2021/06/01 02:04:45;;;;;;;7.88;4.53;;;14.40;59.90;;;;;;5058327;28;20492;-73
2021/06/01 02:07:12;;;;;;;5.57;3.75;;;14.40;60.60;;;;;;5041414;28;20094;-74
2021/06/01 02:09:38;;;;;;;6.95;4.85;;;14.40;61.10;;;;;;5058087;28;20028;-73
2021/06/01 02:12:04;;;;;;;7.57;4.88;;;14.30;61.40;;;;;;5076282;28;20127;-73
2021/06/01 02:14:30;;;;;;;7.55;4.57;;;14.30;61.70;;;;;;5075827;28;20467;-73
2021/06/01 02:17:00;;;;;;;11.38;5.03;;;14.30;62.40;;;;;;5075585;28;20139;-73
2021/06/01 02:19:27;;;;;;;7.78;4.72;;;14.30;62.70;;;;;;5075549;28;20040;-72
2021/06/01 02:25:01;;;;;;;6.38;4.85;;;14.20;63.60;;;;;;5075438;28;20051;-73
2021/06/01 02:27:41;;;;;;;7.50;4.60;;;14.20;63.30;;;;;;5075807;28;20091;-73
2021/06/01 02:30:15;;;;;;;9.38;4.80;;;14.20;62.90;;;;;;5075558;28;20047;-74
2021/06/01 02:32:48;;;;;;;8.18;4.82;;;14.20;62.90;;;;;;5075702;28;20442;-74
2021/06/01 02:35:19;;;;;;;7.25;4.60;;;14.30;62.60;;;;;;5075564;28;20052;-74
2021/06/01 02:37:48;;;;;;;6.25;4.28;;;14.20;62.90;;;;;;5040936;28;20040;-74
2021/06/01 02:40:19;;;;;;;9.48;5.07;;;14.30;62.80;;;;;;5075144;28;20032;-74
2021/06/01 02:42:46;;;;;;;8.15;4.60;;;14.40;62.60;;;;;;5075091;28;20396;-73
2021/06/01 02:45:15;;;;;;;7.03;4.80;;;14.30;63.00;;;;;;5075254;28;20043;-73
2021/06/01 02:47:42;;;;;;;7.35;4.50;;;14.30;62.90;;;;;;5075320;28;20538;-74
2021/06/01 02:50:13;;;;;;;6.63;4.40;;;14.30;62.60;;;;;;5075078;28;20072;-73
2021/06/01 02:52:41;;;;;;;7.18;4.30;;;14.30;63.10;;;;;;5040867;28;20557;-73
2021/06/01 02:55:09;;;;;;;6.75;4.55;;;14.30;62.90;;;;;;5074789;28;20120;-73
2021/06/01 02:57:37;;;;;;;11.23;4.15;;;14.40;63.10;;;;;;5040482;28;20052;-74
2021/06/01 03:00:05;;;;;;;6.88;4.47;;;14.50;63.80;;;;;;5057230;28;20033;-74
2021/06/01 03:02:31;;;;;;;8.63;4.90;;;14.50;63.00;;;;;;5075524;28;20047;-73
2021/06/01 03:04:57;;;;;;;9.65;4.45;;;14.70;62.80;;;;;;5057038;28;20036;-73
2021/06/01 03:07:24;;;;;;;9.82;4.90;;;14.80;62.30;;;;;;5074812;28;20065;-73
2021/06/01 03:09:50;;;;;;;6.18;4.50;;;15.00;62.20;;;;;;5074648;28;20036;-74
2021/06/01 03:12:36;;;;;;;7.25;4.68;;;15.00;62.00;;;;;;5057001;28;20499;-74
2021/06/01 03:15:02;;;;;;;;;;;15.00;62.10;;;;;;5057128;28;20043;-73
2021/06/01 03:17:28;;;;;;;5.72;4.90;;;15.00;62.00;;;;;;5074740;28;19924;-74
2021/06/01 03:19:54;;;;;;;8.48;5.38;;;15.00;61.80;;;;;;5074753;28;20503;-73
2021/06/01 03:22:20;;;;;;;9.30;4.78;;;15.00;61.60;;;;;;5074431;28;20024;-74
2021/06/01 03:24:46;;;;;;;7.72;4.32;;;15.10;61.40;;;;;;5056644;28;20135;-73
2021/06/01 03:27:13;;;;;;;6.05;3.90;;;15.30;61.10;;;;;;5074228;28;20110;-73
2021/06/01 03:29:39;;;;;;;5.57;4.00;;;15.50;60.70;;;;;;5074488;28;20032;-74
2021/06/01 03:32:06;;;;;;;7.28;4.13;;;15.70;60.50;;;;;;5056568;28;20401;-73
2021/06/01 03:34:33;;;;;;;6.57;4.07;;;15.90;60.40;;;;;;5074375;28;20052;-75
2021/06/01 03:36:59;;;;;;;8.02;4.00;;;16.00;60.20;;;;;;5073909;28;20048;-77
2021/06/01 03:39:27;;;;;;;4.03;3.47;;;16.20;60.10;;;;;;5074601;28;20091;-77
2021/06/01 03:41:53;;;;;;;7.00;3.70;;;16.40;60.10;;;;;;5056256;28;20047;-76
2021/06/01 03:44:19;;;;;;;4.75;3.08;;;16.50;60.00;;;;;;5074342;28;20073;-78
2021/06/01 03:46:45;;;;;;;4.78;2.85;;;16.60;60.00;;;;;;5074135;28;20040;-77
2021/06/01 03:49:11;;;;;;;5.05;3.10;;;16.70;59.90;;;;;;5073951;28;20036;-78
2021/06/01 03:51:37;;;;;;;5.25;3.00;;;16.80;59.90;;;;;;5056087;28;20504;-77
2021/06/01 03:54:03;;;;;;;3.83;2.42;;;17.00;60.00;;;;;;5074110;28;20045;-78
2021/06/01 03:56:29;;;;;;;5.25;2.90;;;17.00;60.00;;;;;;5077616;28;20131;-74
2021/06/01 03:58:55;;;;;;;3.47;2.63;;;17.00;60.00;;;;;;5084314;28;20070;-79
2021/06/01 04:01:21;;;;;;;4.00;2.50;;;17.00;60.10;;;;;;5055017;28;20064;-78
2021/06/01 04:03:47;;;;;;;2.70;2.50;;;17.00;60.30;;;;;;5073858;28;20032;-76
2021/06/01 04:06:13;;;;;;;4.72;2.17;;;17.00;60.30;;;;;;5073377;28;20454;-76
2021/06/01 04:08:40;;;;;;;2.65;2.00;;;17.10;60.40;;;;;;5073600;28;20078;-77
2021/06/01 04:11:07;;;;;;;2.83;2.13;;;17.10;61.00;;;;;;5055852;28;20094;-77
2021/06/01 04:13:33;;;;;;;4.10;2.55;;;17.20;60.50;;;;;;5055760;28;20021;-78
2021/06/01 04:15:59;;;;;;;3.42;2.17;;;17.20;60.50;;;;;;5073761;28;20052;-78
2021/06/01 04:18:25;;;;;;;5.07;2.08;;;17.30;60.50;;;;;;5038996;28;20086;-78
2021/06/01 04:20:51;;;;;;;3.10;1.90;;;17.40;60.40;;;;;;5073360;28;20032;-78
2021/06/01 04:23:17;;;;;;;2.05;1.70;;;17.50;60.20;;;;;;5077817;28;20040;-81
2021/06/01 04:25:43;;;;;;;5.32;2.15;;;17.70;60.00;;;;;;5087230;28;20036;-79
2021/06/01 04:28:09;;;;;;;3.55;2.05;;;17.80;59.80;;;;;;5093263;28;20085;-78
2021/06/01 04:30:35;;;;;;;5.07;2.00;;;18.00;59.60;;;;;;5093819;28;20032;-77
2021/06/01 04:33:02;;;;;;;2.55;1.77;;;18.20;59.60;;;;;;5073182;28;20484;-76
2021/06/01 04:35:28;;;;;;;2.42;1.80;;;18.30;59.60;;;;;;5092247;28;20081;-77
2021/06/01 04:37:54;;;;;;;3.28;2.03;;;18.40;59.60;;;;;;5093467;28;20113;-77
2021/06/01 04:40:20;;;;;;;1.90;1.80;;;18.50;59.70;;;;;;5075671;28;20047;-77
2021/06/01 04:42:47;;;;;;;4.32;1.77;;;18.60;59.70;;;;;;5074242;28;20040;-77
2021/06/01 04:45:14;;;;;;;2.17;1.98;;;18.70;59.90;;;;;;5092905;28;20042;-78
2021/06/01 04:47:41;;;;;;;1.80;1.70;;;18.80;60.00;;;;;;5075037;28;20054;-78
2021/06/01 04:50:07;;;;;;;3.10;1.80;;;18.90;60.10;;;;;;5093261;28;20052;-77
2021/06/01 04:52:33;;;;;;;6.00;1.88;;;19.00;60.20;;;;;;5093409;28;20035;-77
2021/06/01 04:54:59;;;;;;;2.85;1.65;;;19.00;60.30;;;;;;5092852;28;20047;-77
2021/06/01 04:57:25;;;;;;;2.00;1.80;;;19.20;60.40;;;;;;5093040;28;20075;-77
2021/06/01 04:59:51;;;;;;;1.63;1.52;;;19.20;60.40;;;;;;5092732;28;20040;-77
2021/06/01 05:02:17;;;;;;;1.90;1.60;;;19.20;60.60;;;;;;5093222;28;20039;-77
2021/06/01 05:04:43;;;;;;;5.70;2.00;;;19.20;60.80;;;;;;5058064;28;20040;-76
2021/06/01 05:07:08;;;;;;;2.38;1.60;;;19.20;61.10;;;;;;5092799;28;20030;-75
2021/06/01 05:09:35;;;;;;;3.25;2.28;;;19.20;61.30;;;;;;5074550;28;20060;-78
2021/06/01 05:12:01;;;;;;;3.10;2.20;;;19.20;57.10;;;;;;5074673;28;20475;-77
2021/06/01 05:14:27;;;;;;;4.00;2.20;;;19.30;56.70;;;;;;5092965;28;20488;-76
2021/06/01 05:16:53;;;;;;;4.20;2.28;;;19.30;55.10;;;;;;5092294;28;20051;-73
2021/06/01 05:19:19;;;;;;;4.32;2.70;;;19.30;53.90;;;;;;5092775;28;20122;-73
2021/06/01 05:21:45;;;;;;;2.53;2.33;;;19.20;53.30;;;;;;5092634;28;20044;-74
2021/06/01 05:24:12;;;;;;;2.60;2.33;;;19.20;52.30;;;;;;5074680;28;20410;-74
2021/06/01 05:26:39;;;;;;;3.42;2.47;;;19.20;52.40;;;;;;5074626;28;20039;-75
2021/06/01 05:29:05;;;;;;;3.90;2.13;;;19.10;52.10;;;;;;5074356;28;20040;-74
2021/06/01 05:34:18;;;;;;;4.22;1.95;;;19.00;51.10;;;;;;5092262;28;20119;-75
2021/06/01 05:36:44;;;;;;;3.20;2.05;;;18.90;50.40;;;;;;5057560;28;20438;-75
2021/06/01 05:39:12;;;;;;;3.28;2.08;;;18.90;50.20;;;;;;5057633;28;20028;-74
2021/06/01 05:41:38;;;;;;;2.65;1.95;;;18.80;49.70;;;;;;5092585;28;20043;-74
2021/06/01 05:44:05;;;;;;;3.42;2.22;;;18.70;49.70;;;;;;5092223;28;20036;-74
2021/06/01 05:46:31;;;;;;;4.18;1.98;;;18.70;49.80;;;;;;5092213;28;20029;-75
2021/06/01 05:48:56;;;;;;;2.92;1.98;;;18.70;49.80;;;;;;5074195;28;20043;-74
2021/06/01 05:51:30;;;;;;;4.47;2.38;;;18.70;50.00;;;;;;5074377;28;20110;-74
2021/06/01 05:53:56;;;;;;;4.65;2.10;;;18.70;50.10;;;;;;5074626;28;20438;-74
2021/06/01 05:56:22;;;;;;;4.07;2.25;;;18.70;49.70;;;;;;5074231;28;20039;-74
2021/06/01 05:58:48;;;;;;;4.70;1.95;;;18.70;49.90;;;;;;5092143;28;20116;-73
2021/06/01 06:01:14;;;;;;;3.00;1.73;;;18.70;49.80;;;;;;5092206;28;20034;-76
2021/06/01 06:03:40;;;;;;;5.47;2.00;;;18.70;50.70;;;;;;5092381;28;20040;-75
2021/06/01 06:06:11;;;;;;;6.10;2.20;;;18.70;52.70;;;;;;5092120;28;20488;-74
2021/06/01 06:08:38;;;;;;;3.80;1.80;;;18.70;53.60;;;;;;5092354;28;20093;-74
2021/06/01 06:11:04;;;;;;;2.53;1.80;;;18.70;53.90;;;;;;5074288;28;20032;-76
2021/06/01 06:13:30;;;;;;;4.47;1.80;;;18.80;54.30;;;;;;5091853;28;20510;-74
2021/06/01 06:15:56;;;;;;;3.05;1.70;;;18.80;54.70;;;;;;5092181;28;20062;-73
2021/06/01 06:18:46;;;;;;;5.35;2.83;;;18.80;54.70;;;;;;5092410;28;20052;-73
2021/06/01 06:21:13;;;;;;;4.20;2.22;;;18.90;55.00;;;;;;5091853;28;20434;-74
2021/06/01 06:23:42;;;;;;;2.92;1.65;;;18.90;54.70;;;;;;5093343;28;20127;-77
2021/06/01 06:26:09;;;;;;;2.90;1.60;;;18.90;54.30;;;;;;5095546;28;20503;-76
2021/06/01 06:28:36;;;;;;;1.75;1.52;;;19.00;54.10;;;;;;5095607;28;20119;-74
2021/06/01 06:31:02;;;;;;;2.65;1.60;;;18.90;54.30;;;;;;5060743;28;20032;-73
2021/06/01 06:33:28;;;;;;;1.70;1.60;;;19.00;54.40;;;;;;5095611;28;20039;-73
2021/06/01 06:35:54;;;;;;;3.63;2.03;;;19.00;53.80;;;;;;5095252;28;20100;-73
2021/06/01 06:38:20;;;;;;;3.33;1.90;;;19.00;53.70;;;;;;5060601;28;20039;-74
2021/06/01 06:41:00;;;;;;;1.92;1.60;;;19.00;53.80;;;;;;5077345;28;20040;-73
2021/06/01 06:43:26;;;;;;;2.42;1.52;;;19.10;53.90;;;;;;5095683;28;20067;-73
2021/06/01 06:45:52;;;;;;;2.95;1.30;;;19.10;54.00;;;;;;5095293;28;20063;-74
2021/06/01 06:48:18;;;;;;;2.40;1.40;;;19.10;53.90;;;;;;5095235;28;20118;-73
2021/06/01 06:50:44;;;;;;;2.83;1.55;;;19.10;54.30;;;;;;5095074;28;20042;-74
2021/06/01 06:53:10;;;;;;;1.92;1.77;;;19.10;54.10;;;;;;5094902;28;20430;-74
2021/06/01 06:55:36;;;;;;;3.78;1.77;;;19.10;54.40;;;;;;5094989;28;20024;-74
2021/06/01 06:58:02;;;;;;;2.03;1.67;;;19.10;54.30;;;;;;5094891;28;20036;-73
2021/06/01 07:00:29;;;;;;;2.67;2.03;;;19.10;53.70;;;;;;5095590;28;20027;-71
2021/06/01 07:02:57;;;;;;;4.43;1.63;;;19.10;53.90;;;;;;5095094;28;20484;-71
2021/06/01 07:05:23;;;;;;;2.30;1.75;;;19.10;53.80;;;;;;5094833;28;20057;-70
2021/06/01 07:07:52;;;;;;;2.20;1.70;;;19.10;53.70;;;;;;5094850;28;20028;-70
2021/06/01 07:10:19;;;;;;;1.75;1.50;;;19.20;53.90;;;;;;5094754;28;20551;-73
2021/06/01 07:12:45;;;;;;;2.05;1.70;;;19.20;53.70;;;;;;5094938;28;20165;-72
2021/06/01 07:15:23;;;;;;;1.98;1.60;;;19.20;53.20;;;;;;5094740;28;20047;-73
2021/06/01 07:17:57;;;;;;;2.75;1.70;;;19.20;52.50;;;;;;5076580;28;20044;-74
2021/06/01 07:20:25;;;;;;;5.30;1.80;;;19.20;52.40;;;;;;5076818;28;20484;-74
2021/06/01 07:22:51;;;;;;;3.28;1.52;;;19.20;52.30;;;;;;5076557;28;20032;-76
2021/06/01 07:25:17;;;;;;;2.83;1.67;;;19.20;52.60;;;;;;5094772;28;20043;-74
2021/06/01 07:27:43;;;;;;;4.07;1.85;;;19.20;52.80;;;;;;5076512;28;20059;-75
2021/06/01 07:30:10;;;;;;;2.63;1.88;;;19.20;52.30;;;;;;5094513;28;20051;-74
2021/06/01 07:32:36;;;;;;;3.25;1.40;;;19.20;52.30;;;;;;5076468;28;20032;-76
2021/06/01 07:35:02;;;;;;;1.70;1.58;;;19.30;52.20;;;;;;5094735;28;20036;-73
2021/06/01 07:37:28;;;;;;;2.45;1.83;;;19.30;52.60;;;;;;5094131;28;20044;-72
2021/06/01 07:39:54;;;;;;;3.33;1.50;;;19.40;52.20;;;;;;5094615;28;20035;-74
2021/06/01 07:42:20;;;;;;;2.80;1.33;;;19.50;52.20;;;;;;5076521;28;20032;-72
2021/06/01 07:44:46;;;;;;;2.15;1.63;;;19.50;52.30;;;;;;5094582;28;20072;-73
2021/06/01 07:47:12;;;;;;;1.50;1.40;;;19.60;52.00;;;;;;5094317;28;20087;-72
2021/06/01 07:49:38;;;;;;;3.70;1.90;;;19.60;51.90;;;;;;5094299;28;20036;-74
2021/06/01 07:52:04;;;;;;;5.15;1.80;;;19.70;52.00;;;;;;5093888;28;20046;-71
2021/06/01 07:54:32;;;;;;;4.80;2.30;;;19.70;52.70;;;;;;5094130;28;20043;-72
2021/06/01 07:56:58;;;;;;;6.05;2.22;;;19.80;53.30;;;;;;5076113;28;20043;-71
2021/06/01 07:59:24;;;;;;;3.55;1.70;;;19.80;53.50;;;;;;5093967;28;20040;-70
2021/06/01 08:01:50;;;;;;;3.50;1.90;;;19.90;53.50;;;;;;5094102;28;20040;-71
2021/06/01 08:04:16;;;;;;;5.15;2.00;;;19.90;53.80;;;;;;5093705;28;20043;-71
2021/06/01 08:06:42;;;;;;;4.95;2.35;;;19.90;53.80;;;;;;5093922;28;20044;-71
2021/06/01 08:09:08;;;;;;;4.38;2.00;;;19.90;53.10;;;;;;5094131;28;20048;-71
2021/06/01 08:11:35;;;;;;;5.20;2.00;;;19.90;53.10;;;;;;5075727;28;20031;-72
2021/06/01 08:14:01;;;;;;;6.82;2.08;;;19.90;53.20;;;;;;5093610;28;20047;-71
2021/06/01 08:16:28;;;;;;;4.53;2.00;;;19.90;53.20;;;;;;5093511;28;20424;-71
2021/06/01 08:24:06;;;;;;;4.50;1.70;;;19.80;52.80;;;;;;5075358;28;20393;-72
2021/06/01 08:26:33;;;;;;;2.38;1.60;;;19.80;52.80;;;;;;5093313;28;20047;-72
2021/06/01 08:28:58;;;;;;;2.75;1.70;;;19.80;53.70;;;;;;5093501;28;20396;-72
2021/06/01 08:31:26;;;;;;;4.03;1.38;;;19.80;54.20;;;;;;5075101;28;20081;-71
2021/06/01 08:33:52;;;;;;;4.55;1.67;;;19.80;54.40;;;;;;5075136;28;20047;-72
2021/06/01 08:36:18;;;;;;;2.70;1.60;;;19.80;54.30;;;;;;5093527;28;20040;-71
2021/06/01 08:38:44;;;;;;;1.65;1.52;;;19.80;54.00;;;;;;5093306;28;20170;-71
2021/06/01 08:41:14;;;;;;;4.30;1.83;;;19.80;54.10;;;;;;5075157;28;20047;-71
2021/06/01 08:43:40;;;;;;;2.70;1.70;;;19.80;53.90;;;;;;5093243;28;20032;-72
2021/06/01 08:46:06;;;;;;;2.50;1.80;;;19.80;54.10;;;;;;5074467;28;20131;-71
2021/06/01 08:48:34;;;;;;;4.03;1.70;;;19.80;53.90;;;;;;5074929;28;20044;-71
2021/06/01 08:51:00;;;;;;;1.85;1.65;;;19.80;53.30;;;;;;5093434;28;20035;-71
2021/06/01 08:53:26;;;;;;;2.13;1.70;;;19.80;52.60;;;;;;5074833;28;20036;-70
2021/06/01 08:55:52;;;;;;;2.22;1.67;;;19.80;52.80;;;;;;5092676;28;20055;-71
2021/06/01 08:58:21;;;;;;;3.05;1.45;;;19.70;52.60;;;;;;5092976;28;20051;-71
2021/06/01 09:00:48;;;;;;;3.90;1.80;;;19.80;53.10;;;;;;5092980;28;20376;-71
2021/06/01 09:03:18;;;;;;;2.95;1.70;;;19.70;52.10;;;;;;5092923;28;20523;-70
2021/06/01 09:06:27;;;;;;;3.40;1.90;;;19.80;52.10;;;;;;5092646;28;20043;-71
2021/06/01 09:22:36;;;;;;;1.60;1.50;;;19.70;51.30;;;;;;5113159;28;20171;-71
2021/06/01 09:25:10;;;;;;;1.63;1.52;;;19.70;50.70;;;;;;5094803;28;20487;-71
2021/06/01 09:27:48;;;;;;;2.72;2.08;;;19.70;51.00;;;;;;5113094;28;20039;-72
2021/06/01 09:30:34;;;;;;;2.17;1.60;;;19.70;50.40;;;;;;5111906;28;20449;-70
2021/06/01 09:33:01;;;;;;;3.25;1.83;;;19.70;50.40;;;;;;5098785;28;20126;-71
2021/06/01 09:35:47;;;;;;;2.17;1.50;;;19.70;50.40;;;;;;5112759;28;20039;-71
2021/06/01 09:38:14;;;;;;;1.50;1.40;;;19.70;50.10;;;;;;5112846;28;20077;-71
2021/06/01 09:40:41;;;;;;;2.53;1.90;;;19.70;50.30;;;;;;5112940;28;20032;-70
2021/06/01 09:43:10;;;;;;;1.70;1.50;;;19.70;50.30;;;;;;5111734;28;20069;-71
2021/06/01 09:45:36;;;;;;;1.80;1.50;;;19.70;49.90;;;;;;5112002;28;20038;-72
2021/06/01 09:48:07;;;;;;;2.45;1.48;;;19.70;49.80;;;;;;5111548;28;20097;-72
2021/06/01 09:53:11;;;;;;;1.85;1.70;;;19.60;49.90;;;;;;5112566;28;20475;-72
2021/06/01 09:55:47;;;;;;;3.60;1.55;;;19.70;49.90;;;;;;5111494;28;20127;-72
2021/06/01 09:58:34;;;;;;;1.75;1.60;;;19.60;49.40;;;;;;5095563;28;20031;-73
2021/06/01 10:01:06;;;;;;;1.75;1.42;;;19.60;49.40;;;;;;5116519;28;20054;-72
2021/06/01 10:03:51;;;;;;;1.80;1.42;;;19.60;49.70;;;;;;5116829;28;20488;-72
2021/06/01 10:06:18;;;;;;;2.20;1.33;;;19.60;49.20;;;;;;5117191;28;20034;-72
2021/06/01 10:08:49;;;;;;;2.10;1.65;;;19.60;49.80;;;;;;5116801;28;20024;-71
2021/06/01 10:11:16;;;;;;;1.60;1.50;;;19.60;48.80;;;;;;5116568;28;20031;-71
2021/06/01 10:13:43;;;;;;;1.42;1.40;;;19.60;49.00;;;;;;5116067;28;20031;-71
2021/06/01 10:16:15;;;;;;;4.00;1.50;;;19.60;48.60;;;;;;5107788;28;20416;-72
2021/06/01 10:18:42;;;;;;;2.40;1.60;;;19.60;48.90;;;;;;5077842;28;20043;-72
2021/06/01 10:21:13;;;;;;;3.80;1.50;;;19.70;49.00;;;;;;5095714;28;20492;-72
2021/06/01 10:23:42;;;;;;;3.47;1.73;;;19.60;48.60;;;;;;5095920;28;20040;-72
2021/06/01 10:26:13;;;;;;;1.77;1.52;;;19.60;48.90;;;;;;5077964;28;20086;-71
2021/06/01 10:28:43;;;;;;;1.77;1.33;;;19.70;49.30;;;;;;5077823;28;20093;-71
2021/06/01 10:31:11;;;;;;;1.90;1.67;;;19.60;48.30;;;;;;5077514;28;20456;-71
2021/06/01 10:33:47;;;;;;;2.10;1.58;;;19.70;48.50;;;;;;5095535;28;20456;-71
2021/06/01 10:42:29;;;;;;;1.65;1.40;;;19.70;48.50;;;;;;5078024;28;20048;-71
2021/06/01 10:50:49;;;;;;;1.77;1.20;;;19.70;48.40;;;;;;4993945;28;20051;-70
2021/06/01 10:53:26;;;;;;;1.10;1.10;;;19.70;48.30;;;;;;5069835;28;20046;-70
2021/06/01 10:55:56;;;;;;;1.33;1.23;;;19.70;47.70;;;;;;5095577;28;20040;-70
2021/06/01 10:58:34;;;;;;;2.47;1.20;;;19.70;48.80;;;;;;5095465;28;20032;-70
2021/06/01 11:04:13;;;;;;;;;;;19.70;47.80;;;;;;5095381;28;20040;-71
2021/06/01 11:06:55;;;;;;;1.13;0.90;;;19.60;47.20;;;;;;5094845;28;19913;-71
2021/06/01 11:09:33;;;;;;;1.25;1.15;;;19.70;47.80;;;;;;5094585;28;20071;-71
2021/06/01 11:12:35;;;;;;;1.67;1.20;;;19.60;47.70;;;;;;5094896;28;20066;-70
2021/06/01 11:15:25;;;;;;;1.23;1.17;;;19.60;47.40;;;;;;5094524;28;20048;-70
2021/06/01 11:17:51;;;;;;;1.95;1.35;;;19.60;47.20;;;;;;5094971;28;20051;-71
2021/06/01 11:20:28;;;;;;;1.15;0.95;;;19.70;47.10;;;;;;5094721;28;20130;-70
2021/06/01 11:33:37;;;;;;;2.33;1.17;;;19.70;47.70;;;;;;5076641;28;20036;-72
2021/06/01 11:36:12;;;;;;;1.55;1.00;;;19.70;47.70;;;;;;5094584;28;20040;-73
2021/06/01 11:42:47;;;;;;;2.97;1.25;;;19.70;47.40;;;;;;5094532;28;20131;-72
2021/06/01 11:44:19;;;;;;;1.60;1.15;;;19.70;47.10;;;;;;5093950;28;20073;-72
2021/06/01 11:47:09;;;;;;;1.13;1.13;;;19.70;47.20;;;;;;5094491;28;20028;-71
2021/06/01 11:52:27;;;;;;;2.55;1.50;;;19.70;47.30;;;;;;5094196;28;20054;-72
2021/06/01 11:54:53;;;;;;;2.80;1.40;;;19.70;46.80;;;;;;5094508;28;20115;-71
2021/06/01 11:57:30;;;;;;;3.15;1.20;;;19.70;47.10;;;;;;5093747;28;20047;-73
2021/06/01 12:02:58;;;;;;;2.03;1.55;;;19.70;47.80;;;;;;5093978;28;20606;-71
2021/06/01 12:19:13;;;;;;;1.53;1.40;;;19.70;46.80;;;;;;5093775;28;20173;-71
2021/06/01 12:21:43;;;;;;;2.90;1.20;;;19.70;46.60;;;;;;5092973;28;20270;-71
2021/06/01 12:24:22;;;;;;;1.30;1.20;;;19.70;46.80;;;;;;5093765;28;20036;-70
2021/06/01 12:32:22;;;;;;;1.75;1.30;;;19.70;47.00;;;;;;5093227;28;20500;-70
2021/06/01 12:46:45;;;;;;;1.83;1.15;;;19.70;45.80;;;;;;5093284;28;20035;-80
2021/06/01 13:19:48;;;;;;;3.13;1.40;;;19.70;44.00;;;;;;5112023;28;20121;-79
2021/06/01 13:30:54;;;;;;;3.55;1.50;;;19.60;43.50;;;;;;5113116;28;20492;-85
2021/06/01 13:38:52;;;;;;;4.35;1.48;;;19.50;42.70;;;;;;5117513;28;20538;-84
2021/06/01 13:47:02;;;;;;;1.50;1.38;;;19.50;42.70;;;;;;5117001;28;20069;-77
2021/06/01 13:49:37;;;;;;;2.40;1.50;;;19.50;43.30;;;;;;5117285;28;20085;-82
2021/06/01 13:55:15;;;;;;;1.48;1.38;;;19.50;43.40;;;;;;5116924;27;20047;-78
2021/06/01 14:09:30;;;;;;;1.40;1.30;;;19.50;45.00;;;;;;5117055;28;20043;-75
2021/06/01 14:15:15;;;;;;;0.80;0.80;;;19.60;45.90;;;;;;5117023;28;20165;-87
2021/06/01 14:28:07;;;;;;;2.78;1.00;;;19.70;46.50;;;;;;5095861;28;20546;-76
2021/06/01 14:30:53;;;;;;;5.53;1.20;;;19.80;46.50;;;;;;5095748;28;20028;-76
2021/06/01 14:55:35;;;;;;;2.03;1.40;;;19.80;45.60;;;;;;5077345;28;20051;-75
2021/06/01 15:49:38;;;;;;;2.00;1.47;;;19.90;48.60;;;;;;5113660;28;20031;-74
2021/06/01 16:14:26;;;;;;;3.15;1.50;;;19.90;48.30;;;;;;5114628;28;20061;-80
2021/06/01 17:03:31;;;;;;;1.77;1.67;;;19.40;44.30;;;;;;5092829;28;20399;-79
2021/06/01 17:06:25;;;;;;;3.95;1.70;;;19.40;44.40;;;;;;5074724;28;20028;-78
2021/06/01 17:11:31;;;;;;;2.40;1.73;;;19.30;44.40;;;;;;5074593;28;20117;-78
2021/06/01 17:14:02;;;;;;;2.50;1.50;;;19.30;44.40;;;;;;5092770;28;20039;-74
2021/06/01 17:19:26;;;;;;;3.58;1.77;;;19.30;44.60;;;;;;5093207;28;20054;-76
2021/06/01 17:35:15;;;;;;;2.80;1.60;;;19.10;44.50;;;;;;5092506;28;20040;-81
2021/06/01 17:37:41;;;;;;;4.10;2.00;;;19.10;44.40;;;;;;5092388;28;20089;-84
2021/06/01 17:40:11;;;;;;;3.20;1.80;;;19.00;44.50;;;;;;5092935;28;20416;-73
2021/06/01 17:42:43;;;;;;;3.80;1.73;;;19.00;44.70;;;;;;5074503;28;20031;-73
2021/06/01 17:45:14;;;;;;;5.03;1.90;;;19.00;44.70;;;;;;5092871;28;20036;-79
2021/06/01 17:47:48;;;;;;;3.75;1.95;;;19.00;44.70;;;;;;5092630;28;20040;-73
2021/06/01 17:50:14;;;;;;;4.73;1.80;;;19.00;44.90;;;;;;5074675;28;20403;-74
2021/06/01 17:52:43;;;;;;;3.67;1.83;;;18.90;44.80;;;;;;5092503;28;20044;-73
2021/06/01 17:55:15;;;;;;;2.60;1.75;;;18.90;44.80;;;;;;5092353;28;20127;-72
2021/06/01 17:57:43;;;;;;;4.35;2.10;;;18.90;44.80;;;;;;5074064;28;20044;-74
2021/06/01 18:00:09;;;;;;;5.90;1.98;;;18.90;44.90;;;;;;5092529;28;20119;-82
2021/06/01 18:02:39;;;;;;;2.80;1.85;;;18.80;45.10;;;;;;5092175;28;20053;-73
2021/06/01 18:05:06;;;;;;;2.70;2.03;;;18.80;45.00;;;;;;5092725;28;20034;-71
2021/06/01 18:07:41;;;;;;;3.13;2.03;;;18.80;44.90;;;;;;5074211;28;20407;-82
2021/06/01 19:52:09;;;;;;;6.30;2.95;;;18.00;49.30;;;;;;5076044;28;20028;-77
2021/06/01 19:54:36;;;;;;;6.07;3.20;;;18.00;49.30;;;;;;5094052;28;20032;-76
2021/06/01 19:57:03;;;;;;;6.80;2.97;;;18.00;49.40;;;;;;5094327;28;20086;-76
2021/06/01 19:59:29;;;;;;;5.55;2.72;;;18.00;49.30;;;;;;5094231;28;20088;-76
2021/06/01 20:01:55;;;;;;;6.72;3.10;;;17.90;49.10;;;;;;5094163;28;20035;-78
2021/06/01 20:04:21;;;;;;;5.50;2.70;;;17.90;49.00;;;;;;5075823;28;20036;-76
2021/06/01 20:06:49;;;;;;;5.15;3.08;;;18.00;49.00;;;;;;5093892;28;20412;-76
2021/06/01 20:09:18;;;;;;;4.38;3.17;;;18.00;48.90;;;;;;5093810;28;20101;-76
2021/06/01 20:11:45;;;;;;;6.50;2.95;;;17.90;48.90;;;;;;5094406;28;20040;-75
2021/06/01 20:14:11;;;;;;;3.40;2.92;;;17.90;49.00;;;;;;5093850;28;20036;-76
2021/06/01 20:16:43;;;;;;;4.15;2.88;;;18.00;48.70;;;;;;5093621;28;20070;-76